createdAt,value
2018-10-11T00:01:14.620Z,76.40
2018-10-11T00:03:49.018Z,76.60
2018-10-11T00:06:23.681Z,76.70
2018-10-11T00:08:58.291Z,76.60
2018-10-11T00:11:32.818Z,76.60
2018-10-11T00:14:07.662Z,76.40
2018-10-11T00:16:41.988Z,76.40
2018-10-11T00:19:16.589Z,76.30
2018-10-11T00:21:51.188Z,76.70
2018-10-11T00:24:25.758Z,76.50
2018-10-11T00:27:00.517Z,76.90
2018-10-11T00:29:34.759Z,77.10
2018-10-11T00:32:09.313Z,77.30
2018-10-11T00:34:43.971Z,77.60
2018-10-11T00:37:18.674Z,77.80
2018-10-11T00:39:53.140Z,77.90
2018-10-11T00:42:28.068Z,77.90
2018-10-11T00:45:02.633Z,78.00
2018-10-11T00:47:37.081Z,78.20
2018-10-11T00:50:11.789Z,78.40
2018-10-11T00:52:46.585Z,78.60
2018-10-11T00:55:20.920Z,78.70
2018-10-11T00:57:55.419Z,78.80
2018-10-11T01:00:30.190Z,79.10
2018-10-11T01:03:04.466Z,79.20
2018-10-11T01:05:39.045Z,79.30
2018-10-11T01:08:13.765Z,79.30
2018-10-11T01:10:48.202Z,79.40
2018-10-11T01:13:22.788Z,79.50
2018-10-11T01:15:57.454Z,79.50
2018-10-11T01:18:32.097Z,79.60
2018-10-11T01:21:07.129Z,79.60
2018-10-11T01:23:42.287Z,79.60
2018-10-11T01:26:16.869Z,80.10
2018-10-11T01:28:51.625Z,79.90
2018-10-11T01:31:26.203Z,80.00
2018-10-11T01:34:00.623Z,80.10
2018-10-11T01:36:35.069Z,80.80
2018-10-11T01:39:09.634Z,80.30
2018-10-11T01:41:44.369Z,80.40
2018-10-11T01:44:18.898Z,80.50
2018-10-11T01:46:53.408Z,80.70
2018-10-11T01:49:27.960Z,80.80
2018-10-11T01:52:02.805Z,80.90
2018-10-11T01:54:37.079Z,81.00
2018-10-11T01:57:11.718Z,80.90
2018-10-11T01:59:46.320Z,81.00
2018-10-11T02:02:20.949Z,81.20
2018-10-11T02:04:55.428Z,81.30
2018-10-11T02:07:29.929Z,81.40
2018-10-11T02:10:04.475Z,81.40
2018-10-11T02:12:39.366Z,81.40
2018-10-11T02:15:14.541Z,81.50
2018-10-11T02:17:49.016Z,81.70
2018-10-11T02:20:23.593Z,81.60
2018-10-11T02:22:58.169Z,81.70
2018-10-11T02:25:32.924Z,81.80
2018-10-11T02:28:08.086Z,81.90
2018-10-11T02:30:43.021Z,82.00
2018-10-11T02:33:17.627Z,82.10
2018-10-11T02:35:52.293Z,82.00
2018-10-11T02:38:26.973Z,82.00
2018-10-11T02:41:01.522Z,82.10
2018-10-11T02:43:36.206Z,82.10
2018-10-11T02:46:10.816Z,82.20
2018-10-11T02:48:45.424Z,81.60
2018-10-11T02:51:20.506Z,82.20
2018-10-11T02:53:55.725Z,82.20
2018-10-11T02:56:30.348Z,82.30
2018-10-11T02:59:20.919Z,82.30
2018-10-11T03:01:55.622Z,82.90
2018-10-11T03:04:31.295Z,82.30
2018-10-11T03:07:08.789Z,82.40
2018-10-11T03:09:43.244Z,82.40
2018-10-11T03:12:17.616Z,82.50
2018-10-11T03:14:52.231Z,82.50
2018-10-11T03:17:26.793Z,82.50
2018-10-11T03:20:01.289Z,82.60
2018-10-11T03:22:36.009Z,82.30
2018-10-11T03:25:10.458Z,82.30
2018-10-11T03:27:45.077Z,82.80
2018-10-11T03:30:19.503Z,82.10
2018-10-11T03:32:54.148Z,82.10
2018-10-11T03:35:28.759Z,82.00
2018-10-11T03:38:03.549Z,82.00
2018-10-11T03:40:37.953Z,82.00
2018-10-11T03:43:12.566Z,82.00
2018-10-11T03:45:47.401Z,82.00
2018-10-11T03:48:21.633Z,81.90
2018-10-11T03:50:56.436Z,81.80
2018-10-11T03:53:30.733Z,81.70
2018-10-11T03:56:05.819Z,81.70
2018-10-11T03:58:40.866Z,81.70
2018-10-11T04:01:15.562Z,81.70
2018-10-11T04:03:49.937Z,81.70
2018-10-11T04:06:24.438Z,81.60
2018-10-11T04:08:59.008Z,81.70
2018-10-11T04:11:33.717Z,81.70
2018-10-11T04:14:08.173Z,81.60
2018-10-11T04:16:42.768Z,81.70
2018-10-11T04:19:17.309Z,81.70
2018-10-11T04:21:51.807Z,81.70
2018-10-11T04:24:26.360Z,81.30
2018-10-11T04:27:01.031Z,81.30
2018-10-11T04:29:35.387Z,81.40
2018-10-11T04:32:09.958Z,81.50
2018-10-11T04:34:44.580Z,81.60
2018-10-11T04:37:19.360Z,81.60
2018-10-11T04:39:53.557Z,81.60
2018-10-11T04:42:28.208Z,81.50
2018-10-11T04:45:02.832Z,81.70
2018-10-11T04:47:37.381Z,81.60
2018-10-11T04:50:11.807Z,81.60
2018-10-11T04:52:46.469Z,81.60
2018-10-11T04:55:21.054Z,81.70
2018-10-11T04:57:55.882Z,81.70
2018-10-11T05:00:30.507Z,81.70
2018-10-11T05:03:05.023Z,81.70
2018-10-11T05:05:39.858Z,81.70
2018-10-11T05:08:14.054Z,81.60
2018-10-11T05:10:49.591Z,81.70
2018-10-11T05:13:43.582Z,81.50
2018-10-11T05:16:18.057Z,82.90
2018-10-11T05:18:56.545Z,82.90
2018-10-11T05:21:30.912Z,83.10
2018-10-11T05:24:05.794Z,83.00
2018-10-11T05:26:40.802Z,83.10
2018-10-11T05:29:15.290Z,83.20
2018-10-11T05:31:49.893Z,83.40
2018-10-11T05:34:24.532Z,83.60
2018-10-11T05:36:58.818Z,83.70
2018-10-11T05:39:33.579Z,83.80
2018-10-11T05:42:08.190Z,83.80
2018-10-11T05:44:43.489Z,83.70
2018-10-11T05:47:18.521Z,83.60
2018-10-11T05:49:52.872Z,82.60
2018-10-11T05:52:27.645Z,82.60
2018-10-11T05:55:02.789Z,82.40
2018-10-11T05:57:37.367Z,82.40
2018-10-11T06:00:12.450Z,82.40
2018-10-11T06:02:57.359Z,82.50
2018-10-11T06:05:32.082Z,82.60
2018-10-11T06:08:07.185Z,82.70
2018-10-11T06:10:43.440Z,82.90
2018-10-11T06:13:17.898Z,82.40
2018-10-11T06:15:52.383Z,83.10
2018-10-11T06:18:26.970Z,83.00
2018-10-11T06:21:01.485Z,82.80
2018-10-11T06:23:35.797Z,82.80
2018-10-11T06:26:11.004Z,82.80
2018-10-11T06:28:45.930Z,83.00
2018-10-11T06:31:20.492Z,83.00
2018-10-11T06:33:55.597Z,83.00
2018-10-11T06:36:30.849Z,82.80
2018-10-11T06:39:08.097Z,81.30
2018-10-11T06:41:42.923Z,80.60
2018-10-11T06:44:17.682Z,79.80
2018-10-11T06:46:52.507Z,78.80
2018-10-11T06:49:27.633Z,75.90
2018-10-11T06:52:02.177Z,75.90
2018-10-11T06:54:36.700Z,76.50
2018-10-11T06:57:11.236Z,76.30
2018-10-11T06:59:45.847Z,76.50
2018-10-11T07:02:20.438Z,74.90
2018-10-11T07:04:55.056Z,74.10
2018-10-11T07:07:29.564Z,73.70
2018-10-11T07:10:04.393Z,73.60
2018-10-11T07:12:38.837Z,73.10
2018-10-11T07:15:13.238Z,72.70
2018-10-11T07:17:47.709Z,72.80
2018-10-11T07:20:22.384Z,72.90
2018-10-11T07:22:56.769Z,69.30
2018-10-11T07:25:31.389Z,68.20
2018-10-11T07:28:06.120Z,67.50
2018-10-11T07:30:40.734Z,67.10
2018-10-11T07:33:15.270Z,65.60
2018-10-11T07:35:50.090Z,64.60
2018-10-11T07:38:24.361Z,64.80
2018-10-11T07:40:58.956Z,65.00
2018-10-11T07:43:33.412Z,65.00
2018-10-11T07:46:08.055Z,60.80
2018-10-11T07:48:42.805Z,60.90
2018-10-11T07:51:17.149Z,61.00
2018-10-11T07:53:51.664Z,59.60
2018-10-11T07:56:26.428Z,57.90
2018-10-11T07:59:01.397Z,59.20
2018-10-11T08:01:36.513Z,58.00
2018-10-11T08:04:11.180Z,58.70
2018-10-11T08:06:45.816Z,58.40
2018-10-11T08:09:20.569Z,56.20
2018-10-11T08:11:55.195Z,55.60
2018-10-11T08:14:30.289Z,55.30
2018-10-11T08:17:05.842Z,55.60
2018-10-11T08:19:40.395Z,55.70
2018-10-11T08:22:15.205Z,55.50
2018-10-11T08:24:50.072Z,54.60
2018-10-11T08:27:24.782Z,53.70
2018-10-11T08:30:00.168Z,54.20
2018-10-11T08:32:34.968Z,53.50
2018-10-11T08:35:09.398Z,53.10
2018-10-11T08:37:43.987Z,51.40
2018-10-11T08:40:18.623Z,51.00
2018-10-11T08:42:53.481Z,50.00
2018-10-11T08:45:28.093Z,49.70
2018-10-11T08:48:02.525Z,51.30
2018-10-11T08:50:37.339Z,50.30
2018-10-11T08:53:12.115Z,49.10
2018-10-11T08:55:46.461Z,50.10
2018-10-11T08:58:20.909Z,49.40
2018-10-11T09:00:55.545Z,50.00
2018-10-11T09:03:30.381Z,48.90
2018-10-11T09:06:04.880Z,49.40
2018-10-11T09:08:39.051Z,49.70
2018-10-11T09:11:13.615Z,50.70
2018-10-11T09:13:48.273Z,47.40
2018-10-11T09:16:22.586Z,48.50
2018-10-11T09:18:57.259Z,49.30
2018-10-11T09:21:32.173Z,46.60
2018-10-11T09:24:06.650Z,45.30
2018-10-11T09:26:41.174Z,46.30
2018-10-11T09:29:15.539Z,45.60
2018-10-11T09:31:50.910Z,45.60
2018-10-11T09:34:25.751Z,44.50
2018-10-11T09:37:00.593Z,45.80
2018-10-11T09:39:35.136Z,45.20
2018-10-11T09:42:09.394Z,43.40
2018-10-11T09:44:44.993Z,43.70
2018-10-11T09:47:19.965Z,42.50
2018-10-11T09:49:54.242Z,42.30
2018-10-11T09:52:29.259Z,41.00
2018-10-11T09:55:03.590Z,43.30
2018-10-11T09:57:38.559Z,40.30
2018-10-11T10:00:19.394Z,40.10
2018-10-11T10:02:53.985Z,40.40
2018-10-11T10:05:28.801Z,41.60
2018-10-11T10:08:03.255Z,42.40
2018-10-11T10:10:37.818Z,40.90
2018-10-11T10:13:13.085Z,41.30
2018-10-11T10:15:47.990Z,41.90
2018-10-11T10:18:22.530Z,42.70
2018-10-11T10:20:57.380Z,40.20
2018-10-11T10:23:31.628Z,41.10
2018-10-11T10:26:06.409Z,40.80
2018-10-11T10:28:40.711Z,43.00
2018-10-11T10:31:15.134Z,41.80
2018-10-11T10:33:49.708Z,42.20
2018-10-11T10:36:24.102Z,41.10
2018-10-11T10:38:58.653Z,41.00
2018-10-11T10:41:33.297Z,40.80
2018-10-11T10:44:07.990Z,40.70
2018-10-11T10:46:51.123Z,40.80
2018-10-11T10:49:26.097Z,41.20
2018-10-11T10:52:00.735Z,41.70
2018-10-11T10:54:35.805Z,42.20
2018-10-11T10:57:10.909Z,41.10
2018-10-11T10:59:45.410Z,41.60
2018-10-11T11:02:20.323Z,41.50
2018-10-11T11:04:54.590Z,41.80
2018-10-11T11:07:29.271Z,42.20
2018-10-11T11:10:04.282Z,43.10
2018-10-11T11:12:39.321Z,42.90
2018-10-11T11:15:13.981Z,42.50
2018-10-11T11:17:48.705Z,42.20
2018-10-11T11:20:23.406Z,42.90
2018-10-11T11:22:58.014Z,43.20
2018-10-11T11:25:32.825Z,43.00
2018-10-11T11:28:07.157Z,42.70
2018-10-11T11:30:41.678Z,43.10
2018-10-11T11:33:16.220Z,43.00
2018-10-11T11:35:50.791Z,42.20
2018-10-11T11:38:27.354Z,43.30
2018-10-11T11:41:02.086Z,42.60
2018-10-11T11:43:36.761Z,42.80
2018-10-11T11:46:11.446Z,42.70
2018-10-11T11:48:45.951Z,42.40
2018-10-11T11:51:20.615Z,42.70
2018-10-11T11:53:55.407Z,42.20
2018-10-11T11:56:29.646Z,42.90
2018-10-11T11:59:04.758Z,43.10
2018-10-11T12:01:38.966Z,43.40
2018-10-11T12:04:13.494Z,43.60
2018-10-11T12:06:47.935Z,44.10
2018-10-11T12:09:22.791Z,44.40
2018-10-11T12:11:56.977Z,43.70
2018-10-11T12:14:31.477Z,43.50
2018-10-11T12:17:06.570Z,43.70
2018-10-11T12:19:41.689Z,45.00
2018-10-11T12:22:16.201Z,45.00
2018-10-11T12:24:50.787Z,45.30
2018-10-11T12:27:25.303Z,42.10
2018-10-11T12:29:59.941Z,40.70
2018-10-11T12:32:34.529Z,40.80
2018-10-11T12:35:09.047Z,41.70
2018-10-11T12:37:43.750Z,44.70
2018-10-11T12:40:18.681Z,45.30
2018-10-11T12:42:53.689Z,45.80
2018-10-11T12:45:28.369Z,44.50
2018-10-11T12:48:02.998Z,43.90
2018-10-11T12:50:37.706Z,44.40
2018-10-11T12:53:12.205Z,43.70
2018-10-11T12:55:46.770Z,44.00
2018-10-11T12:58:26.005Z,44.60
2018-10-11T13:01:01.048Z,46.80
2018-10-11T13:03:37.010Z,46.20
2018-10-11T13:06:11.171Z,47.10
2018-10-11T13:08:45.712Z,46.80
2018-10-11T13:11:20.271Z,46.90
2018-10-11T13:13:56.158Z,47.50
2018-10-11T13:16:31.849Z,47.00
2018-10-11T13:19:06.998Z,47.20
2018-10-11T13:21:41.574Z,44.80
2018-10-11T13:24:16.240Z,44.90
2018-10-11T13:26:51.193Z,45.50
2018-10-11T13:29:25.876Z,46.80
2018-10-11T13:32:00.149Z,47.30
2018-10-11T13:34:34.786Z,47.20
2018-10-11T13:37:09.496Z,48.10
2018-10-11T13:39:50.531Z,47.40
2018-10-11T13:42:18.999Z,47.40
2018-10-11T13:44:53.335Z,48.40
2018-10-11T13:47:28.181Z,50.10
2018-10-11T13:50:02.661Z,49.50
2018-10-11T13:52:37.175Z,50.00
2018-10-11T13:55:14.190Z,49.20
2018-10-11T13:57:46.445Z,49.20
2018-10-11T14:00:21.644Z,50.50
2018-10-11T14:02:56.638Z,51.00
2018-10-11T14:05:31.265Z,51.30
2018-10-11T14:08:06.364Z,49.30
2018-10-11T14:10:40.664Z,49.10
2018-10-11T14:13:17.505Z,49.20
2018-10-11T14:15:49.727Z,50.50
2018-10-11T14:18:24.589Z,51.20
2018-10-11T14:20:59.085Z,51.20
2018-10-11T14:23:33.505Z,50.50
2018-10-11T14:26:07.995Z,50.40
2018-10-11T14:28:42.580Z,50.10
2018-10-11T14:31:17.242Z,50.20
2018-10-11T14:33:52.685Z,50.40
2018-10-11T14:36:27.964Z,48.70
2018-10-11T14:39:02.473Z,49.10
2018-10-11T14:41:37.604Z,49.40
2018-10-11T14:44:12.374Z,49.30
2018-10-11T14:46:47.349Z,49.10
2018-10-11T14:49:22.138Z,49.50
2018-10-11T14:51:56.441Z,49.10
2018-10-11T14:54:34.299Z,49.80
2018-10-11T14:57:09.087Z,50.10
2018-10-11T14:59:44.331Z,50.40
2018-10-11T15:02:18.409Z,50.70
2018-10-11T15:04:52.970Z,50.60
2018-10-11T15:07:27.390Z,50.60
2018-10-11T15:10:02.225Z,50.50
2018-10-11T15:12:37.289Z,50.80
2018-10-11T15:15:12.140Z,50.90
2018-10-11T15:17:46.750Z,50.90
2018-10-11T15:20:21.274Z,50.70
2018-10-11T15:22:55.907Z,50.70
2018-10-11T15:25:30.721Z,50.80
2018-10-11T15:28:06.487Z,51.20
2018-10-11T15:30:41.144Z,51.50
2018-10-11T15:33:15.522Z,51.70
2018-10-11T15:35:50.144Z,52.10
2018-10-11T15:38:24.702Z,52.80
2018-10-11T15:40:59.347Z,52.80
2018-10-11T15:43:33.701Z,52.70
2018-10-11T15:46:08.272Z,52.90
2018-10-11T15:48:42.892Z,53.10
2018-10-11T15:51:17.389Z,53.80
2018-10-11T15:53:52.054Z,54.70
2018-10-11T15:56:26.886Z,53.80
2018-10-11T15:59:01.452Z,53.90
2018-10-11T16:01:36.050Z,54.40
2018-10-11T16:04:11.187Z,54.60
2018-10-11T16:06:45.750Z,55.40
2018-10-11T16:09:20.308Z,55.50
2018-10-11T16:11:56.007Z,55.00
2018-10-11T16:14:30.391Z,55.90
2018-10-11T16:17:05.050Z,56.20
2018-10-11T16:19:39.549Z,56.60
2018-10-11T16:22:14.205Z,56.40
2018-10-11T16:24:49.081Z,56.60
2018-10-11T16:27:23.316Z,56.80
2018-10-11T16:29:57.869Z,57.10
2018-10-11T16:32:32.516Z,58.60
2018-10-11T16:35:07.503Z,58.90
2018-10-11T16:37:41.678Z,59.70
2018-10-11T16:40:16.246Z,60.00
2018-10-11T16:42:50.886Z,60.80
2018-10-11T16:45:25.986Z,60.70
2018-10-11T16:48:00.238Z,61.10
2018-10-11T16:50:34.885Z,61.50
2018-10-11T16:53:09.349Z,62.40
2018-10-11T16:55:44.037Z,62.90
2018-10-11T16:58:18.793Z,62.80
2018-10-11T17:00:53.269Z,63.80
2018-10-11T17:03:27.847Z,64.20
2018-10-11T17:06:02.331Z,65.00
2018-10-11T17:08:37.229Z,65.80
2018-10-11T17:11:11.485Z,66.40
2018-10-11T17:13:46.545Z,66.90
2018-10-11T17:16:20.840Z,67.30
2018-10-11T17:18:55.215Z,67.50
2018-10-11T17:21:30.144Z,68.20
2018-10-11T17:24:04.368Z,68.90
2018-10-11T17:26:39.151Z,69.00
2018-10-11T17:29:13.761Z,69.50
2018-10-11T17:31:48.395Z,70.10
2018-10-11T17:34:23.178Z,70.60
2018-10-11T17:36:58.709Z,71.10
2018-10-11T17:39:33.882Z,71.00
2018-10-11T17:42:08.785Z,71.50
2018-10-11T17:44:44.051Z,71.90
2018-10-11T17:47:20.350Z,72.30
2018-10-11T17:49:54.726Z,72.60
2018-10-11T17:52:29.593Z,72.70
2018-10-11T17:55:03.948Z,72.60
2018-10-11T17:57:38.330Z,72.80
2018-10-11T18:00:13.108Z,73.10
2018-10-11T18:02:47.705Z,73.80
2018-10-11T18:05:22.309Z,74.40
2018-10-11T18:07:56.896Z,74.10
2018-10-11T18:10:38.187Z,74.10
2018-10-11T18:13:13.091Z,74.60
2018-10-11T18:15:47.642Z,74.60
2018-10-11T18:18:22.193Z,74.60
2018-10-11T18:20:57.432Z,74.70
2018-10-11T18:23:32.674Z,74.80
2018-10-11T18:26:07.501Z,75.10
2018-10-11T18:28:41.918Z,75.40
2018-10-11T18:31:16.330Z,75.40
2018-10-11T18:33:51.329Z,75.20
2018-10-11T18:36:26.358Z,75.30
2018-10-11T18:39:02.337Z,75.50
2018-10-11T18:41:36.698Z,75.80
2018-10-11T18:44:11.606Z,75.80
2018-10-11T18:46:46.737Z,75.90
2018-10-11T18:49:21.418Z,76.00
2018-10-11T18:51:56.552Z,75.80
2018-10-11T18:54:31.959Z,75.70
2018-10-11T18:57:06.429Z,75.20
2018-10-11T18:59:41.378Z,75.40
2018-10-11T19:02:15.679Z,75.40
2018-10-11T19:04:50.516Z,75.50
2018-10-11T19:07:24.670Z,75.60
2018-10-11T19:09:59.365Z,76.10
2018-10-11T19:12:34.834Z,76.30
2018-10-11T19:15:09.502Z,76.40
2018-10-11T19:17:44.136Z,76.30
2018-10-11T19:20:18.756Z,76.10
2018-10-11T19:22:53.216Z,75.90
2018-10-11T19:25:27.745Z,76.00
2018-10-11T19:28:02.246Z,75.90
2018-10-11T19:30:36.773Z,75.80
2018-10-11T19:33:11.366Z,75.60
2018-10-11T19:35:47.143Z,75.60
2018-10-11T19:38:21.504Z,75.80
2018-10-11T19:40:56.008Z,76.10
2018-10-11T19:43:30.602Z,76.30
2018-10-11T19:46:05.316Z,76.60
2018-10-11T19:48:40.113Z,76.60
2018-10-11T19:51:14.519Z,76.60
2018-10-11T19:53:49.326Z,76.50
2018-10-11T19:56:23.734Z,76.50
2018-10-11T19:58:58.385Z,76.70
2018-10-11T20:01:33.004Z,76.80
2018-10-11T20:04:07.422Z,76.90
2018-10-11T20:06:42.086Z,77.10
2018-10-11T20:09:16.366Z,77.30
2018-10-11T20:11:50.734Z,77.40
2018-10-11T20:14:25.420Z,77.80
2018-10-11T20:17:00.001Z,78.00
2018-10-11T20:19:34.679Z,77.80
2018-10-11T20:22:10.283Z,77.80
2018-10-11T20:24:44.859Z,77.90
2018-10-11T20:27:19.425Z,78.20
2018-10-11T20:29:54.095Z,78.30
2018-10-11T20:32:29.093Z,78.50
2018-10-11T20:35:04.238Z,78.70
2018-10-11T20:37:38.813Z,78.40
2018-10-11T20:40:13.450Z,78.20
2018-10-11T20:42:47.946Z,78.10
2018-10-11T20:45:23.778Z,78.10
2018-10-11T20:47:58.449Z,78.30
2018-10-11T20:50:33.061Z,78.50
2018-10-11T20:53:07.607Z,78.60
2018-10-11T20:55:42.023Z,78.10
2018-10-11T20:58:16.778Z,78.20
2018-10-11T21:00:51.327Z,78.20
2018-10-11T21:03:26.171Z,78.20
2018-10-11T21:06:00.643Z,79.00
2018-10-11T21:08:35.185Z,78.40
2018-10-11T21:11:09.680Z,78.60
2018-10-11T21:13:44.195Z,78.70
2018-10-11T21:16:18.801Z,78.80
2018-10-11T21:18:53.274Z,78.80
2018-10-11T21:21:27.930Z,78.90
2018-10-11T21:24:02.581Z,78.90
2018-10-11T21:26:37.529Z,78.90
2018-10-11T21:29:12.630Z,79.00
2018-10-11T21:31:47.357Z,79.10
2018-10-11T21:34:22.066Z,79.20
2018-10-11T21:36:56.652Z,79.30
2018-10-11T21:39:31.467Z,79.50
2018-10-11T21:42:05.809Z,79.60
2018-10-11T21:44:40.445Z,79.60
2018-10-11T21:47:15.047Z,79.60
2018-10-11T21:49:49.744Z,79.50
2018-10-11T21:52:24.681Z,79.60
2018-10-11T21:54:59.807Z,79.70
2018-10-11T21:57:34.892Z,79.80
2018-10-11T22:00:09.870Z,79.90
2018-10-11T22:02:44.257Z,80.00
2018-10-11T22:05:18.694Z,80.20
2018-10-11T22:07:53.119Z,80.00
2018-10-11T22:10:27.831Z,80.10
2018-10-11T22:13:02.622Z,80.10
2018-10-11T22:15:37.277Z,80.30
2018-10-11T22:18:11.634Z,80.40
2018-10-11T22:20:46.458Z,80.50
2018-10-11T22:23:21.412Z,80.40
2018-10-11T22:25:56.937Z,80.30
2018-10-11T22:28:31.147Z,80.20
2018-10-11T22:31:05.765Z,80.30
2018-10-11T22:33:40.849Z,80.20
2018-10-11T22:36:15.886Z,80.40
2018-10-11T22:38:50.331Z,80.60
2018-10-11T22:41:25.095Z,80.70
2018-10-11T22:43:59.685Z,80.80
2018-10-11T22:46:34.906Z,81.10
2018-10-11T22:49:10.578Z,81.30
2018-10-11T22:51:45.655Z,81.50
2018-10-11T22:54:20.275Z,81.50
2018-10-11T22:56:54.853Z,81.60
2018-10-11T22:59:29.483Z,81.80
2018-10-11T23:02:04.057Z,81.90
2018-10-11T23:04:38.734Z,82.00
2018-10-11T23:07:13.210Z,82.20
2018-10-11T23:09:47.605Z,82.40
2018-10-11T23:12:22.533Z,82.40
2018-10-11T23:14:56.931Z,82.60
2018-10-11T23:17:31.568Z,82.60
2018-10-11T23:20:05.977Z,82.80
2018-10-11T23:22:41.442Z,82.90
2018-10-11T23:25:16.038Z,82.90
2018-10-11T23:27:50.649Z,82.70
2018-10-11T23:30:25.292Z,82.90
2018-10-11T23:32:59.933Z,82.50
2018-10-11T23:35:34.562Z,83.40
2018-10-11T23:38:09.286Z,82.70
2018-10-11T23:40:43.818Z,82.80
2018-10-11T23:43:18.397Z,82.70
2018-10-11T23:45:52.966Z,82.60
2018-10-11T23:48:27.894Z,82.60
2018-10-11T23:51:02.307Z,82.50
2018-10-11T23:53:37.221Z,82.60
2018-10-11T23:56:11.411Z,83.40
2018-10-11T23:58:46.098Z,82.60
